createdAt,value
2022-10-19T00:01:48.514Z,5.90
2022-10-19T00:04:15.023Z,5.57
2022-10-19T00:06:41.404Z,5.00
2022-10-19T00:09:07.811Z,4.95
2022-10-19T00:11:34.193Z,4.88
2022-10-19T00:14:00.588Z,4.70
2022-10-19T00:16:26.962Z,4.32
2022-10-19T00:18:53.358Z,4.72
2022-10-19T00:21:19.730Z,5.03
2022-10-19T00:23:46.165Z,4.80
2022-10-19T00:26:12.573Z,5.43
2022-10-19T00:28:39.027Z,4.90
2022-10-19T00:31:05.463Z,4.85
2022-10-19T00:33:31.833Z,4.47
2022-10-19T00:35:58.233Z,5.40
2022-10-19T00:38:24.611Z,4.43
2022-10-19T00:40:51.017Z,4.70
2022-10-19T00:43:17.403Z,5.13
2022-10-19T00:45:43.805Z,4.70
2022-10-19T00:48:10.194Z,4.82
2022-10-19T00:50:36.615Z,5.30
2022-10-19T00:53:03.171Z,4.47
2022-10-19T00:55:29.592Z,4.78
2022-10-19T00:57:55.998Z,4.68
2022-10-19T01:00:22.468Z,4.22
2022-10-19T01:02:48.863Z,4.50
2022-10-19T01:05:15.279Z,4.13
2022-10-19T01:07:41.670Z,4.07
2022-10-19T01:10:08.077Z,4.53
2022-10-19T01:12:34.454Z,4.60
2022-10-19T01:15:00.840Z,4.70
2022-10-19T01:17:27.248Z,4.93
2022-10-19T01:19:53.659Z,4.18
2022-10-19T01:22:20.070Z,4.65
2022-10-19T01:24:46.511Z,4.90
2022-10-19T01:27:12.931Z,4.85
2022-10-19T01:29:39.304Z,4.45
2022-10-19T01:32:05.703Z,4.40
2022-10-19T01:34:32.080Z,4.70
2022-10-19T01:36:58.478Z,4.60
2022-10-19T01:39:24.854Z,4.50
2022-10-19T01:41:54.527Z,4.70
2022-10-19T01:44:20.910Z,4.88
2022-10-19T01:46:47.358Z,4.72
2022-10-19T01:49:13.802Z,4.57
2022-10-19T01:51:40.200Z,4.60
2022-10-19T01:54:06.610Z,4.80
2022-10-19T01:56:33.006Z,5.15
2022-10-19T01:58:59.418Z,5.35
2022-10-19T02:01:25.804Z,5.40
2022-10-19T02:03:52.211Z,5.18
2022-10-19T02:06:18.608Z,4.95
2022-10-19T02:08:45.019Z,5.40
2022-10-19T02:11:11.469Z,5.18
2022-10-19T02:13:37.939Z,5.57
2022-10-19T02:16:04.333Z,6.53
2022-10-19T02:18:30.730Z,7.63
2022-10-19T02:20:57.123Z,6.90
2022-10-19T02:23:23.537Z,8.43
2022-10-19T02:25:49.947Z,8.23
2022-10-19T02:28:16.472Z,8.20
2022-10-19T02:30:42.898Z,8.20
2022-10-19T02:33:09.311Z,8.82
2022-10-19T02:35:35.707Z,9.27
2022-10-19T02:38:02.114Z,10.07
2022-10-19T02:40:28.516Z,10.13
2022-10-19T02:42:54.907Z,9.70
2022-10-19T02:45:21.343Z,10.45
2022-10-19T02:47:47.752Z,9.07
2022-10-19T02:50:14.156Z,9.60
2022-10-19T02:52:40.538Z,9.45
2022-10-19T02:55:06.959Z,10.50
2022-10-19T02:57:33.531Z,10.10
2022-10-19T03:00:00.140Z,10.57
2022-10-19T03:02:26.526Z,9.90
2022-10-19T03:04:52.939Z,10.57
2022-10-19T03:07:19.341Z,10.23
2022-10-19T03:09:45.739Z,10.57
2022-10-19T03:12:12.159Z,10.27
2022-10-19T03:14:38.572Z,10.60
2022-10-19T03:17:04.981Z,10.05
2022-10-19T03:19:31.357Z,11.05
2022-10-19T03:21:57.774Z,10.52
2022-10-19T03:24:24.161Z,10.63
2022-10-19T03:26:50.559Z,11.20
2022-10-19T03:29:16.957Z,11.10
2022-10-19T03:31:43.343Z,11.18
2022-10-19T03:34:09.785Z,11.27
2022-10-19T03:36:36.246Z,11.43
2022-10-19T03:39:02.653Z,12.27
2022-10-19T03:41:29.069Z,12.32
2022-10-19T03:43:55.498Z,12.00
2022-10-19T03:46:21.958Z,12.13
2022-10-19T03:48:48.350Z,12.77
2022-10-19T03:51:14.752Z,12.80
2022-10-19T03:53:41.156Z,13.05
2022-10-19T03:56:07.550Z,13.30
2022-10-19T03:58:33.967Z,12.95
2022-10-19T04:01:00.601Z,12.98
2022-10-19T04:03:27.081Z,15.30
2022-10-19T04:05:53.506Z,14.60
2022-10-19T04:08:19.896Z,14.18
2022-10-19T04:10:46.306Z,14.38
2022-10-19T04:13:12.733Z,15.02
2022-10-19T04:15:39.154Z,15.55
2022-10-19T04:18:05.562Z,13.75
2022-10-19T04:20:31.932Z,14.35
2022-10-19T04:22:58.354Z,13.63
2022-10-19T04:25:24.743Z,14.18
2022-10-19T04:27:51.388Z,13.65
2022-10-19T04:30:17.784Z,13.55
2022-10-19T04:32:44.190Z,14.65
2022-10-19T04:35:10.577Z,13.77
2022-10-19T04:37:37.098Z,12.32
2022-10-19T04:40:03.497Z,13.10
2022-10-19T04:42:29.930Z,13.20
2022-10-19T04:44:56.375Z,13.18
2022-10-19T04:47:22.782Z,12.73
2022-10-19T04:49:49.186Z,13.18
2022-10-19T04:52:15.592Z,13.45
2022-10-19T04:54:41.997Z,12.88
2022-10-19T04:57:08.381Z,12.77
2022-10-19T04:59:34.791Z,17.90
2022-10-19T05:02:01.178Z,13.45
2022-10-19T05:04:27.574Z,13.20
2022-10-19T05:06:53.952Z,12.35
2022-10-19T05:09:20.350Z,12.57
2022-10-19T05:11:46.722Z,12.55
2022-10-19T05:14:13.200Z,12.88
2022-10-19T05:16:39.603Z,13.98
2022-10-19T05:19:05.999Z,13.13
2022-10-19T05:21:32.386Z,13.38
2022-10-19T05:23:58.796Z,12.60
2022-10-19T05:26:25.181Z,13.40
2022-10-19T05:28:51.586Z,14.48
2022-10-19T05:31:18.026Z,14.25
2022-10-19T05:33:44.418Z,14.00
2022-10-19T05:36:10.879Z,12.05
2022-10-19T05:38:37.281Z,12.40
2022-10-19T05:41:03.686Z,12.30
2022-10-19T05:43:30.070Z,11.52
2022-10-19T05:45:56.471Z,11.25
2022-10-19T05:48:22.867Z,11.02
2022-10-19T05:50:49.257Z,12.40
2022-10-19T05:53:15.663Z,11.82
2022-10-19T05:55:42.061Z,11.68
2022-10-19T05:58:08.445Z,12.88
2022-10-19T06:00:34.863Z,14.93
2022-10-19T06:03:01.280Z,12.88
2022-10-19T06:05:27.692Z,14.35
2022-10-19T06:07:54.094Z,12.80
2022-10-19T06:10:20.492Z,13.18
2022-10-19T06:12:46.888Z,13.00
2022-10-19T06:15:13.326Z,13.35
2022-10-19T06:17:39.745Z,13.10
2022-10-19T06:20:06.132Z,13.52
2022-10-19T06:22:32.562Z,13.15
2022-10-19T06:24:58.966Z,12.52
2022-10-19T06:27:25.425Z,13.10
2022-10-19T06:29:51.867Z,14.00
2022-10-19T06:32:18.292Z,13.77
2022-10-19T06:34:44.684Z,13.90
2022-10-19T06:37:11.107Z,13.52
2022-10-19T06:39:37.506Z,13.40
2022-10-19T06:42:03.932Z,13.15
2022-10-19T06:44:30.379Z,12.25
2022-10-19T06:46:56.795Z,12.63
2022-10-19T06:49:23.189Z,12.52
2022-10-19T06:54:39.821Z,12.07
2022-10-19T06:57:06.258Z,12.20
2022-10-19T06:59:32.774Z,12.02
2022-10-19T07:01:59.176Z,11.75
2022-10-19T07:04:25.585Z,11.63
2022-10-19T07:06:51.999Z,12.38
2022-10-19T07:09:18.460Z,11.65
2022-10-19T07:11:46.046Z,12.10
2022-10-19T07:14:12.778Z,11.73
2022-10-19T07:16:39.235Z,13.07
2022-10-19T07:19:05.669Z,13.10
2022-10-19T07:21:32.094Z,13.00
2022-10-19T07:23:58.599Z,13.35
2022-10-19T07:26:25.039Z,13.25
2022-10-19T07:28:51.531Z,14.43
2022-10-19T07:31:18.134Z,15.25
2022-10-19T07:33:44.551Z,15.20
2022-10-19T07:36:10.950Z,14.60
2022-10-19T07:38:37.462Z,15.40
2022-10-19T07:41:03.849Z,15.77
2022-10-19T07:43:30.396Z,15.15
2022-10-19T07:45:56.900Z,15.00
2022-10-19T07:48:23.315Z,16.02
2022-10-19T07:50:49.746Z,15.10
2022-10-19T07:53:16.194Z,15.18
2022-10-19T07:55:42.613Z,15.18
2022-10-19T07:58:08.998Z,14.98
2022-10-19T08:00:35.459Z,15.05
2022-10-19T08:03:36.148Z,15.50
2022-10-19T08:05:48.321Z,14.57
2022-10-19T08:08:14.726Z,16.23
2022-10-19T08:10:41.182Z,15.52
2022-10-19T08:13:07.563Z,17.98
2022-10-19T08:15:33.975Z,18.63
2022-10-19T08:18:00.405Z,18.63
2022-10-19T08:20:26.913Z,17.98
2022-10-19T08:22:56.475Z,19.15
2022-10-19T08:25:25.355Z,18.63
2022-10-19T08:27:51.725Z,18.73
2022-10-19T08:30:18.187Z,18.85
2022-10-19T08:32:44.580Z,18.73
2022-10-19T08:35:11.106Z,19.00
2022-10-19T08:37:45.069Z,17.85
2022-10-19T08:40:11.815Z,18.85
2022-10-19T08:42:38.185Z,18.92
2022-10-19T08:45:08.071Z,19.23
2022-10-19T08:47:34.673Z,19.73
2022-10-19T08:50:01.410Z,18.35
2022-10-19T08:52:32.017Z,17.95
2022-10-19T08:55:01.722Z,18.00
2022-10-19T08:57:28.092Z,18.20
2022-10-19T08:59:54.642Z,17.48
2022-10-19T09:02:21.032Z,18.02
2022-10-19T09:04:47.519Z,17.25
2022-10-19T09:07:13.895Z,16.63
2022-10-19T09:09:40.309Z,15.02
2022-10-19T09:12:06.865Z,14.15
2022-10-19T09:14:33.500Z,14.45
2022-10-19T09:16:59.966Z,14.15
2022-10-19T09:19:26.389Z,13.63
2022-10-19T09:21:52.830Z,13.57
2022-10-19T09:24:19.215Z,12.32
2022-10-19T09:26:45.614Z,13.85
2022-10-19T09:29:12.001Z,14.43
2022-10-19T09:31:40.741Z,13.90
2022-10-19T09:34:07.284Z,14.35
2022-10-19T09:36:49.996Z,14.27
2022-10-19T09:39:17.292Z,14.80
2022-10-19T09:41:43.716Z,14.70
2022-10-19T09:44:10.108Z,14.82
2022-10-19T09:46:38.765Z,14.48
2022-10-19T09:49:05.579Z,14.60
2022-10-19T09:51:31.994Z,13.20
2022-10-19T09:53:58.397Z,12.95
2022-10-19T09:56:25.113Z,13.07
2022-10-19T09:58:51.566Z,12.88
2022-10-19T10:01:18.260Z,12.60
2022-10-19T10:03:44.661Z,12.02
2022-10-19T10:06:11.081Z,12.35
2022-10-19T10:08:37.509Z,12.27
2022-10-19T10:11:03.938Z,12.50
2022-10-19T10:13:30.338Z,11.73
2022-10-19T10:15:56.833Z,12.48
2022-10-19T10:18:23.238Z,11.68
2022-10-19T10:20:49.649Z,11.23
2022-10-19T10:23:16.358Z,11.13
2022-10-19T10:25:42.738Z,10.57
2022-10-19T10:28:09.156Z,11.10
2022-10-19T10:30:35.556Z,10.75
2022-10-19T10:33:09.453Z,11.05
2022-10-19T10:35:49.815Z,10.80
2022-10-19T10:38:16.230Z,11.02
2022-10-19T10:40:42.606Z,11.27
2022-10-19T10:43:09.049Z,11.35
2022-10-19T10:45:35.428Z,10.77
2022-10-19T10:48:01.867Z,12.15
2022-10-19T10:50:28.332Z,12.30
2022-10-19T10:52:54.755Z,12.57
2022-10-19T10:55:21.137Z,12.18
2022-10-19T10:57:47.652Z,12.65
2022-10-19T11:00:14.058Z,12.80
2022-10-19T11:02:40.496Z,12.07
2022-10-19T11:05:06.952Z,11.07
2022-10-19T11:07:33.758Z,11.60
2022-10-19T11:10:00.384Z,10.80
2022-10-19T11:12:28.043Z,11.50
2022-10-19T11:14:56.854Z,11.43
2022-10-19T11:17:24.815Z,11.30
2022-10-19T11:19:51.243Z,11.38
2022-10-19T11:22:17.730Z,11.13
2022-10-19T11:24:46.482Z,12.00
2022-10-19T11:27:15.052Z,13.60
2022-10-19T11:29:41.432Z,14.18
2022-10-19T11:32:07.891Z,13.32
2022-10-19T11:34:34.296Z,12.05
2022-10-19T11:37:00.701Z,11.77
2022-10-19T11:39:27.085Z,12.35
2022-10-19T11:41:53.525Z,11.60
2022-10-19T11:44:19.930Z,11.38
2022-10-19T11:46:46.313Z,10.93
2022-10-19T11:49:12.707Z,10.32
2022-10-19T11:51:39.156Z,10.13
2022-10-19T11:54:05.602Z,9.35
2022-10-19T11:56:44.764Z,7.97
2022-10-19T11:59:18.381Z,7.72
2022-10-19T12:01:44.805Z,7.60
2022-10-19T12:04:11.237Z,7.82
2022-10-19T12:06:37.622Z,6.97
2022-10-19T12:09:04.166Z,5.97
2022-10-19T12:11:30.700Z,6.85
2022-10-19T12:13:57.095Z,5.72
2022-10-19T12:16:23.468Z,5.82
2022-10-19T12:18:49.874Z,5.60
2022-10-19T12:21:16.288Z,5.25
2022-10-19T12:23:42.714Z,4.85
2022-10-19T12:26:09.298Z,5.25
2022-10-19T12:28:35.768Z,5.15
2022-10-19T12:31:02.164Z,5.05
2022-10-19T12:33:28.561Z,5.45
2022-10-19T12:35:55.065Z,4.50
2022-10-19T12:38:21.470Z,4.43
2022-10-19T12:40:47.911Z,4.72
2022-10-19T12:43:14.315Z,4.10
2022-10-19T12:45:40.722Z,4.40
2022-10-19T12:48:07.110Z,4.25
2022-10-19T12:50:35.056Z,4.97
2022-10-19T12:53:06.168Z,4.28
2022-10-19T12:55:33.196Z,4.68
2022-10-19T12:57:59.581Z,4.53
2022-10-19T13:00:26.156Z,4.43
2022-10-19T13:02:52.601Z,5.72
2022-10-19T13:05:19.100Z,5.05
2022-10-19T13:07:45.850Z,5.68
2022-10-19T13:10:12.326Z,5.68
2022-10-19T13:12:38.979Z,6.80
2022-10-19T13:15:05.627Z,5.15
2022-10-19T13:17:34.084Z,6.07
2022-10-19T13:20:00.841Z,6.45
2022-10-19T13:22:27.231Z,5.75
2022-10-19T13:24:53.662Z,5.60
2022-10-19T13:27:20.085Z,5.85
2022-10-19T13:29:46.490Z,7.75
2022-10-19T13:32:12.961Z,5.43
2022-10-19T13:34:39.352Z,5.80
2022-10-19T13:37:05.815Z,5.85
2022-10-19T13:39:32.211Z,5.40
2022-10-19T13:41:58.620Z,5.32
2022-10-19T13:44:25.161Z,4.40
2022-10-19T13:46:51.750Z,4.22
2022-10-19T13:49:20.107Z,4.55
2022-10-19T13:51:46.557Z,4.28
2022-10-19T13:54:12.934Z,4.40
2022-10-19T13:56:39.445Z,4.55
2022-10-19T13:59:05.857Z,3.75
2022-10-19T14:01:32.782Z,3.60
2022-10-19T14:03:59.284Z,2.83
2022-10-19T14:06:27.644Z,3.10
2022-10-19T14:08:55.074Z,3.38
2022-10-19T14:11:21.569Z,3.70
2022-10-19T14:13:47.991Z,3.47
2022-10-19T14:16:14.386Z,3.45
2022-10-19T14:18:40.836Z,3.20
2022-10-19T14:21:07.240Z,3.08
2022-10-19T14:23:33.660Z,3.20
2022-10-19T14:26:00.209Z,3.13
2022-10-19T14:28:26.619Z,2.63
2022-10-19T14:30:53.075Z,3.20
2022-10-19T14:33:19.509Z,2.70
2022-10-19T14:35:45.904Z,3.00
2022-10-19T14:38:12.313Z,2.80
2022-10-19T14:40:38.731Z,3.42
2022-10-19T14:43:06.934Z,3.00
2022-10-19T14:45:33.365Z,2.83
2022-10-19T14:47:59.892Z,3.00
2022-10-19T14:50:26.497Z,3.03
2022-10-19T14:52:52.938Z,3.80
2022-10-19T14:55:19.360Z,3.40
2022-10-19T14:57:45.861Z,3.67
2022-10-19T15:00:12.310Z,4.03
2022-10-19T15:02:38.814Z,3.85
2022-10-19T15:05:05.251Z,4.10
2022-10-19T15:07:31.638Z,3.33
2022-10-19T15:09:58.050Z,3.53
2022-10-19T15:12:24.450Z,3.03
2022-10-19T15:14:50.845Z,3.47
2022-10-19T15:17:20.842Z,3.20
2022-10-19T15:19:47.486Z,3.03
2022-10-19T15:22:13.874Z,3.70
2022-10-19T15:24:40.287Z,4.00
2022-10-19T15:27:09.332Z,3.67
2022-10-19T15:29:36.019Z,4.07
2022-10-19T15:32:02.396Z,4.18
2022-10-19T15:34:28.808Z,4.30
2022-10-19T15:36:55.202Z,4.57
2022-10-19T15:39:32.989Z,4.68
2022-10-19T15:41:59.709Z,4.45
2022-10-19T15:44:26.214Z,4.45
2022-10-19T15:46:52.615Z,4.78
2022-10-19T15:49:19.053Z,4.50
2022-10-19T15:51:45.474Z,4.68
2022-10-19T15:54:11.877Z,4.70
2022-10-19T15:56:38.295Z,4.18
2022-10-19T15:59:04.735Z,3.78
2022-10-19T16:01:31.165Z,4.72
2022-10-19T16:03:57.590Z,3.92
2022-10-19T16:06:23.978Z,4.35
2022-10-19T16:08:50.552Z,4.47
2022-10-19T16:11:16.983Z,4.43
2022-10-19T16:13:43.410Z,4.70
2022-10-19T16:16:11.531Z,4.72
2022-10-19T16:18:38.471Z,3.80
2022-10-19T16:21:04.895Z,4.90
2022-10-19T16:23:31.347Z,5.00
2022-10-19T16:25:57.762Z,4.78
2022-10-19T16:28:24.161Z,4.25
2022-10-19T16:30:50.553Z,4.50
2022-10-19T16:33:16.950Z,4.80
2022-10-19T16:35:43.334Z,4.70
2022-10-19T16:38:09.739Z,4.70
2022-10-19T16:40:36.121Z,4.70
2022-10-19T16:43:02.522Z,5.07
2022-10-19T16:45:28.901Z,4.53
2022-10-19T16:47:55.299Z,4.20
2022-10-19T16:50:21.907Z,4.50
2022-10-19T16:52:48.330Z,5.30
2022-10-19T16:55:14.739Z,5.53
2022-10-19T16:57:41.135Z,5.15
2022-10-19T17:00:07.533Z,5.88
2022-10-19T17:02:34.160Z,5.30
2022-10-19T17:05:00.855Z,5.20
2022-10-19T17:07:27.273Z,4.90
2022-10-19T17:09:54.817Z,5.25
2022-10-19T17:12:21.489Z,5.20
2022-10-19T17:14:47.957Z,5.43
2022-10-19T17:17:14.364Z,5.82
2022-10-19T17:19:40.737Z,5.53
2022-10-19T17:22:07.242Z,5.50
2022-10-19T17:24:33.622Z,5.72
2022-10-19T17:27:00.088Z,5.72
2022-10-19T17:29:26.505Z,6.22
2022-10-19T17:31:52.885Z,6.28
2022-10-19T17:34:19.321Z,7.65
2022-10-19T17:36:45.712Z,7.70
2022-10-19T17:39:12.121Z,8.38
2022-10-19T17:41:38.518Z,9.50
2022-10-19T17:44:04.916Z,7.50
2022-10-19T17:46:31.296Z,8.93
2022-10-19T17:48:57.697Z,7.57
2022-10-19T17:51:24.083Z,7.10
2022-10-19T17:53:50.498Z,6.60
2022-10-19T17:56:16.919Z,6.45
2022-10-19T17:58:43.381Z,6.38
2022-10-19T18:01:09.763Z,6.18
2022-10-19T18:03:36.169Z,5.63
2022-10-19T18:06:04.605Z,6.10
2022-10-19T18:08:33.381Z,4.88
2022-10-19T18:10:59.765Z,5.25
2022-10-19T18:13:26.212Z,5.75
2022-10-19T18:15:52.693Z,5.07
2022-10-19T18:18:19.102Z,4.72
2022-10-19T18:20:45.574Z,5.50
2022-10-19T18:23:11.978Z,5.50
2022-10-19T18:25:53.338Z,4.78
2022-10-19T18:28:20.174Z,9.32
2022-10-19T18:30:46.595Z,5.28
2022-10-19T18:33:12.976Z,8.23
2022-10-19T18:35:39.369Z,5.88
2022-10-19T18:38:05.762Z,4.97
2022-10-19T18:40:32.165Z,5.25
2022-10-19T18:42:58.558Z,4.90
2022-10-19T18:45:24.968Z,6.15
2022-10-19T18:47:51.354Z,4.93
2022-10-19T18:50:17.786Z,4.88
2022-10-19T18:52:44.201Z,5.47
2022-10-19T18:55:10.676Z,5.15
2022-10-19T18:57:37.143Z,5.93
2022-10-19T19:00:03.605Z,5.30
2022-10-19T19:02:35.444Z,5.28
2022-10-19T19:05:12.442Z,5.50
2022-10-19T19:07:38.827Z,5.55
2022-10-19T19:10:05.218Z,5.80
2022-10-19T19:12:31.585Z,5.03
2022-10-19T19:14:58.022Z,4.68
2022-10-19T19:17:24.474Z,5.65
2022-10-19T19:19:50.842Z,5.60
2022-10-19T19:22:17.239Z,5.22
2022-10-19T19:24:43.680Z,5.13
2022-10-19T19:27:10.192Z,5.30
2022-10-19T19:29:36.662Z,5.60
2022-10-19T19:32:03.055Z,5.70
2022-10-19T19:34:29.447Z,5.43
2022-10-19T19:36:55.872Z,6.10
2022-10-19T19:39:22.291Z,5.35
2022-10-19T19:41:48.779Z,5.75
2022-10-19T19:44:15.184Z,5.32
2022-10-19T19:46:41.589Z,5.70
2022-10-19T19:49:07.969Z,5.38
2022-10-19T19:51:34.369Z,5.40
2022-10-19T19:54:00.742Z,5.20
2022-10-19T19:56:27.219Z,5.65
2022-10-19T19:58:53.589Z,5.88
2022-10-19T20:01:20.086Z,6.40
2022-10-19T20:03:46.513Z,6.47
2022-10-19T20:06:12.979Z,5.80
2022-10-19T20:08:39.575Z,5.60
2022-10-19T20:11:05.990Z,5.38
2022-10-19T20:13:32.404Z,5.50
2022-10-19T20:15:58.809Z,5.07
2022-10-19T20:18:25.223Z,5.43
2022-10-19T20:20:51.682Z,5.38
2022-10-19T20:23:18.090Z,6.20
2022-10-19T20:25:44.475Z,6.00
2022-10-19T20:28:10.880Z,5.57
2022-10-19T20:30:37.324Z,6.03
2022-10-19T20:33:03.724Z,5.88
2022-10-19T20:35:30.108Z,5.70
2022-10-19T20:37:56.517Z,5.18
2022-10-19T20:40:22.952Z,6.07
2022-10-19T20:42:49.381Z,5.82
2022-10-19T20:45:15.768Z,5.82
2022-10-19T20:47:42.184Z,5.85
2022-10-19T20:50:08.640Z,5.97
2022-10-19T20:52:35.156Z,5.93
2022-10-19T20:55:01.859Z,6.05
2022-10-19T20:57:28.278Z,6.03
2022-10-19T20:59:54.656Z,6.03
2022-10-19T21:02:21.043Z,7.03
2022-10-19T21:04:47.454Z,6.28
2022-10-19T21:07:13.881Z,6.55
2022-10-19T21:09:40.275Z,6.13
2022-10-19T21:12:06.654Z,6.20
2022-10-19T21:14:33.193Z,6.80
2022-10-19T21:16:59.631Z,6.97
2022-10-19T21:19:26.090Z,6.78
2022-10-19T21:21:52.491Z,6.85
2022-10-19T21:24:18.879Z,7.18
2022-10-19T21:26:45.403Z,7.38
2022-10-19T21:29:11.816Z,7.50
2022-10-19T21:31:38.224Z,7.63
2022-10-19T21:34:04.628Z,7.57
2022-10-19T21:36:31.056Z,6.88
2022-10-19T21:38:57.546Z,7.70
2022-10-19T21:41:26.363Z,7.60
2022-10-19T21:43:53.149Z,7.53
2022-10-19T21:46:19.529Z,7.45
2022-10-19T21:48:45.917Z,7.70
2022-10-19T21:51:12.304Z,7.72
2022-10-19T21:53:38.697Z,7.97
2022-10-19T21:56:05.144Z,7.97
2022-10-19T21:58:31.622Z,7.63
2022-10-19T22:00:58.142Z,7.82
2022-10-19T22:03:24.533Z,9.10
2022-10-19T22:05:50.933Z,7.55
2022-10-19T22:08:17.331Z,8.02
2022-10-19T22:10:43.742Z,8.43
2022-10-19T22:13:10.489Z,8.85
2022-10-19T22:15:36.903Z,8.15
2022-10-19T22:18:03.279Z,10.48
2022-10-19T22:20:29.698Z,8.80
2022-10-19T22:22:56.219Z,8.77
2022-10-19T22:25:22.639Z,9.23
2022-10-19T22:27:49.014Z,9.60
2022-10-19T22:30:15.436Z,8.88
2022-10-19T22:32:41.844Z,9.77
2022-10-19T22:35:08.236Z,9.57
2022-10-19T22:37:34.633Z,9.63
2022-10-19T22:40:01.041Z,10.30
2022-10-19T22:42:27.488Z,10.30
2022-10-19T22:44:53.889Z,10.13
2022-10-19T22:47:20.266Z,10.57
2022-10-19T22:49:46.682Z,10.13
2022-10-19T22:52:13.096Z,10.38
2022-10-19T22:54:39.483Z,9.80
2022-10-19T22:57:05.874Z,10.57
2022-10-19T22:59:32.299Z,10.70
2022-10-19T23:01:58.756Z,10.77
2022-10-19T23:04:25.256Z,10.18
2022-10-19T23:06:51.703Z,10.82
2022-10-19T23:09:18.102Z,11.48
2022-10-19T23:11:44.507Z,11.18
2022-10-19T23:14:10.898Z,10.88
2022-10-19T23:16:37.286Z,11.50
2022-10-19T23:19:03.734Z,10.13
2022-10-19T23:21:30.391Z,10.40
2022-10-19T23:23:56.773Z,11.13
2022-10-19T23:26:23.175Z,11.15
2022-10-19T23:28:49.562Z,11.70
2022-10-19T23:31:15.934Z,10.88
2022-10-19T23:33:42.403Z,10.70
2022-10-19T23:36:08.782Z,11.68
2022-10-19T23:38:35.178Z,11.48
2022-10-19T23:41:01.559Z,12.48
2022-10-19T23:43:28.022Z,12.38
2022-10-19T23:45:54.426Z,11.93
2022-10-19T23:48:20.831Z,13.18
2022-10-19T23:50:47.217Z,13.70
2022-10-19T23:53:13.616Z,13.95
2022-10-19T23:55:40.009Z,13.20
2022-10-19T23:58:06.398Z,13.52
